sensor_id;sensor_type;location;lat;lon;timestamp;P1;durP1;ratioP1;P2;durP2;ratioP2
20982;SDS011;10650;51.528;6.748;2022-07-29T00:01:40;4.90;;;1.52;;
20982;SDS011;10650;51.528;6.748;2022-07-29T00:04:08;5.93;;;1.70;;
20982;SDS011;10650;51.528;6.748;2022-07-29T00:06:36;4.97;;;1.70;;
20982;SDS011;10650;51.528;6.748;2022-07-29T00:09:04;3.92;;;1.50;;
20982;SDS011;10650;51.528;6.748;2022-07-29T00:11:32;4.03;;;1.80;;
20982;SDS011;10650;51.528;6.748;2022-07-29T00:14:00;3.78;;;1.50;;
20982;SDS011;10650;51.528;6.748;2022-07-29T00:16:29;3.20;;;1.63;;
20982;SDS011;10650;51.528;6.748;2022-07-29T00:18:57;3.88;;;1.52;;
20982;SDS011;10650;51.528;6.748;2022-07-29T00:21:27;4.05;;;1.42;;
20982;SDS011;10650;51.528;6.748;2022-07-29T00:23:55;5.25;;;1.80;;
20982;SDS011;10650;51.528;6.748;2022-07-29T00:26:23;4.25;;;1.85;;
20982;SDS011;10650;51.528;6.748;2022-07-29T00:28:51;4.00;;;1.60;;
20982;SDS011;10650;51.528;6.748;2022-07-29T00:31:40;3.78;;;1.50;;
20982;SDS011;10650;51.528;6.748;2022-07-29T00:34:08;3.65;;;1.50;;
20982;SDS011;10650;51.528;6.748;2022-07-29T00:36:56;4.32;;;1.60;;
20982;SDS011;10650;51.528;6.748;2022-07-29T00:39:22;5.07;;;1.60;;
20982;SDS011;10650;51.528;6.748;2022-07-29T00:41:52;3.30;;;1.70;;
20982;SDS011;10650;51.528;6.748;2022-07-29T00:44:20;4.22;;;1.70;;
20982;SDS011;10650;51.528;6.748;2022-07-29T00:46:49;3.45;;;1.70;;
20982;SDS011;10650;51.528;6.748;2022-07-29T00:49:17;5.57;;;1.60;;
20982;SDS011;10650;51.528;6.748;2022-07-29T00:51:45;2.50;;;1.50;;
20982;SDS011;10650;51.528;6.748;2022-07-29T00:54:13;4.10;;;1.50;;
20982;SDS011;10650;51.528;6.748;2022-07-29T00:56:42;3.95;;;1.80;;
20982;SDS011;10650;51.528;6.748;2022-07-29T00:59:10;6.82;;;1.67;;
20982;SDS011;10650;51.528;6.748;2022-07-29T01:01:37;4.88;;;1.70;;
20982;SDS011;10650;51.528;6.748;2022-07-29T01:04:07;3.55;;;1.58;;
20982;SDS011;10650;51.528;6.748;2022-07-29T01:06:35;4.18;;;1.60;;
20982;SDS011;10650;51.528;6.748;2022-07-29T01:09:03;3.33;;;1.70;;
20982;SDS011;10650;51.528;6.748;2022-07-29T01:11:30;7.03;;;1.67;;
20982;SDS011;10650;51.528;6.748;2022-07-29T01:13:59;4.10;;;1.55;;
20982;SDS011;10650;51.528;6.748;2022-07-29T01:16:30;4.25;;;1.50;;
20982;SDS011;10650;51.528;6.748;2022-07-29T01:19:04;3.08;;;1.52;;
20982;SDS011;10650;51.528;6.748;2022-07-29T01:21:50;6.60;;;1.80;;
20982;SDS011;10650;51.528;6.748;2022-07-29T01:24:32;3.22;;;1.60;;
20982;SDS011;10650;51.528;6.748;2022-07-29T01:27:11;4.18;;;1.70;;
20982;SDS011;10650;51.528;6.748;2022-07-29T01:29:57;4.97;;;1.70;;
20982;SDS011;10650;51.528;6.748;2022-07-29T01:32:31;5.78;;;1.70;;
20982;SDS011;10650;51.528;6.748;2022-07-29T01:35:03;3.38;;;1.52;;
20982;SDS011;10650;51.528;6.748;2022-07-29T01:37:37;3.60;;;1.52;;
20982;SDS011;10650;51.528;6.748;2022-07-29T01:40:11;4.35;;;1.60;;
20982;SDS011;10650;51.528;6.748;2022-07-29T01:42:48;3.85;;;1.52;;
20982;SDS011;10650;51.528;6.748;2022-07-29T01:45:21;4.80;;;1.50;;
20982;SDS011;10650;51.528;6.748;2022-07-29T01:47:55;3.42;;;1.65;;
20982;SDS011;10650;51.528;6.748;2022-07-29T01:50:29;3.90;;;1.70;;
20982;SDS011;10650;51.528;6.748;2022-07-29T01:53:02;3.42;;;1.60;;
20982;SDS011;10650;51.528;6.748;2022-07-29T01:55:34;5.60;;;1.83;;
20982;SDS011;10650;51.528;6.748;2022-07-29T01:58:05;2.08;;;1.48;;
20982;SDS011;10650;51.528;6.748;2022-07-29T02:00:37;4.28;;;1.75;;
20982;SDS011;10650;51.528;6.748;2022-07-29T02:03:09;4.95;;;1.80;;
20982;SDS011;10650;51.528;6.748;2022-07-29T02:05:40;4.80;;;1.83;;
20982;SDS011;10650;51.528;6.748;2022-07-29T02:10:40;5.30;;;1.83;;
20982;SDS011;10650;51.528;6.748;2022-07-29T02:13:10;4.45;;;1.60;;
20982;SDS011;10650;51.528;6.748;2022-07-29T02:15:41;4.93;;;1.70;;
20982;SDS011;10650;51.528;6.748;2022-07-29T02:18:12;5.73;;;1.70;;
20982;SDS011;10650;51.528;6.748;2022-07-29T02:23:13;3.40;;;1.60;;
20982;SDS011;10650;51.528;6.748;2022-07-29T02:25:44;2.00;;;1.42;;
20982;SDS011;10650;51.528;6.748;2022-07-29T02:28:14;3.40;;;1.55;;
20982;SDS011;10650;51.528;6.748;2022-07-29T02:30:44;4.38;;;1.75;;
20982;SDS011;10650;51.528;6.748;2022-07-29T02:33:16;3.17;;;1.60;;
20982;SDS011;10650;51.528;6.748;2022-07-29T02:35:46;2.92;;;1.40;;
20982;SDS011;10650;51.528;6.748;2022-07-29T02:38:15;2.85;;;1.60;;
20982;SDS011;10650;51.528;6.748;2022-07-29T02:41:03;5.60;;;1.40;;
20982;SDS011;10650;51.528;6.748;2022-07-29T02:43:35;4.82;;;1.60;;
20982;SDS011;10650;51.528;6.748;2022-07-29T02:46:05;6.63;;;1.50;;
20982;SDS011;10650;51.528;6.748;2022-07-29T02:48:55;5.75;;;1.60;;
20982;SDS011;10650;51.528;6.748;2022-07-29T02:51:27;4.50;;;1.70;;
20982;SDS011;10650;51.528;6.748;2022-07-29T02:54:10;4.95;;;1.70;;
20982;SDS011;10650;51.528;6.748;2022-07-29T02:56:44;2.90;;;1.55;;
20982;SDS011;10650;51.528;6.748;2022-07-29T02:59:13;3.85;;;1.60;;
20982;SDS011;10650;51.528;6.748;2022-07-29T03:01:46;4.83;;;1.87;;
20982;SDS011;10650;51.528;6.748;2022-07-29T03:04:15;4.75;;;1.73;;
20982;SDS011;10650;51.528;6.748;2022-07-29T03:06:46;3.22;;;1.60;;
20982;SDS011;10650;51.528;6.748;2022-07-29T03:09:15;5.38;;;1.70;;
20982;SDS011;10650;51.528;6.748;2022-07-29T03:11:44;6.18;;;2.20;;
20982;SDS011;10650;51.528;6.748;2022-07-29T03:14:16;7.35;;;1.75;;
20982;SDS011;10650;51.528;6.748;2022-07-29T03:16:47;3.28;;;1.77;;
20982;SDS011;10650;51.528;6.748;2022-07-29T03:19:16;4.53;;;1.60;;
20982;SDS011;10650;51.528;6.748;2022-07-29T03:21:44;4.35;;;1.80;;
20982;SDS011;10650;51.528;6.748;2022-07-29T03:24:23;2.63;;;1.80;;
20982;SDS011;10650;51.528;6.748;2022-07-29T03:26:56;6.00;;;1.80;;
20982;SDS011;10650;51.528;6.748;2022-07-29T03:29:24;3.45;;;2.10;;
20982;SDS011;10650;51.528;6.748;2022-07-29T03:32:01;5.93;;;2.13;;
20982;SDS011;10650;51.528;6.748;2022-07-29T03:34:34;3.33;;;2.10;;
20982;SDS011;10650;51.528;6.748;2022-07-29T03:37:02;4.68;;;1.90;;
20982;SDS011;10650;51.528;6.748;2022-07-29T03:39:31;5.57;;;2.03;;
20982;SDS011;10650;51.528;6.748;2022-07-29T03:42:02;3.45;;;1.80;;
20982;SDS011;10650;51.528;6.748;2022-07-29T03:44:33;3.43;;;1.80;;
20982;SDS011;10650;51.528;6.748;2022-07-29T03:47:04;2.95;;;1.85;;
20982;SDS011;10650;51.528;6.748;2022-07-29T03:49:34;4.75;;;1.90;;
20982;SDS011;10650;51.528;6.748;2022-07-29T03:52:04;3.90;;;1.90;;
20982;SDS011;10650;51.528;6.748;2022-07-29T03:54:33;3.90;;;2.00;;
20982;SDS011;10650;51.528;6.748;2022-07-29T03:57:01;3.50;;;1.95;;
20982;SDS011;10650;51.528;6.748;2022-07-29T03:59:30;4.38;;;1.95;;
20982;SDS011;10650;51.528;6.748;2022-07-29T04:02:01;2.70;;;1.75;;
20982;SDS011;10650;51.528;6.748;2022-07-29T04:04:33;5.80;;;2.03;;
20982;SDS011;10650;51.528;6.748;2022-07-29T04:07:02;4.30;;;2.13;;
20982;SDS011;10650;51.528;6.748;2022-07-29T04:09:30;3.53;;;1.92;;
20982;SDS011;10650;51.528;6.748;2022-07-29T04:11:58;4.57;;;1.98;;
20982;SDS011;10650;51.528;6.748;2022-07-29T04:14:29;4.50;;;2.20;;
20982;SDS011;10650;51.528;6.748;2022-07-29T04:16:58;3.45;;;2.00;;
20982;SDS011;10650;51.528;6.748;2022-07-29T04:19:26;5.22;;;1.77;;
20982;SDS011;10650;51.528;6.748;2022-07-29T04:21:55;2.63;;;1.88;;
20982;SDS011;10650;51.528;6.748;2022-07-29T04:24:23;6.22;;;2.60;;
20982;SDS011;10650;51.528;6.748;2022-07-29T04:26:50;7.60;;;3.38;;
20982;SDS011;10650;51.528;6.748;2022-07-29T04:29:18;9.48;;;2.80;;
20982;SDS011;10650;51.528;6.748;2022-07-29T04:31:46;8.45;;;3.08;;
20982;SDS011;10650;51.528;6.748;2022-07-29T04:34:14;3.60;;;2.60;;
20982;SDS011;10650;51.528;6.748;2022-07-29T04:36:43;5.35;;;3.00;;
20982;SDS011;10650;51.528;6.748;2022-07-29T04:39:12;7.43;;;3.33;;
20982;SDS011;10650;51.528;6.748;2022-07-29T04:41:47;5.07;;;2.58;;
20982;SDS011;10650;51.528;6.748;2022-07-29T04:44:17;4.47;;;3.08;;
20982;SDS011;10650;51.528;6.748;2022-07-29T04:46:45;4.55;;;2.75;;
20982;SDS011;10650;51.528;6.748;2022-07-29T04:49:13;4.55;;;2.80;;
20982;SDS011;10650;51.528;6.748;2022-07-29T04:51:41;7.07;;;3.00;;
20982;SDS011;10650;51.528;6.748;2022-07-29T04:54:09;4.00;;;2.80;;
20982;SDS011;10650;51.528;6.748;2022-07-29T04:56:38;4.75;;;2.53;;
20982;SDS011;10650;51.528;6.748;2022-07-29T04:59:06;5.80;;;3.05;;
20982;SDS011;10650;51.528;6.748;2022-07-29T05:01:33;3.63;;;3.03;;
20982;SDS011;10650;51.528;6.748;2022-07-29T05:04:01;8.02;;;3.50;;
20982;SDS011;10650;51.528;6.748;2022-07-29T05:06:29;6.65;;;3.58;;
20982;SDS011;10650;51.528;6.748;2022-07-29T05:08:57;7.22;;;3.42;;
20982;SDS011;10650;51.528;6.748;2022-07-29T05:11:24;5.88;;;3.20;;
20982;SDS011;10650;51.528;6.748;2022-07-29T05:13:57;5.18;;;3.42;;
20982;SDS011;10650;51.528;6.748;2022-07-29T05:16:25;7.85;;;3.28;;
20982;SDS011;10650;51.528;6.748;2022-07-29T05:18:53;5.80;;;3.20;;
20982;SDS011;10650;51.528;6.748;2022-07-29T05:21:21;8.35;;;3.83;;
20982;SDS011;10650;51.528;6.748;2022-07-29T05:23:48;5.85;;;3.47;;
20982;SDS011;10650;51.528;6.748;2022-07-29T05:26:16;5.45;;;3.50;;
20982;SDS011;10650;51.528;6.748;2022-07-29T05:28:44;5.72;;;3.08;;
20982;SDS011;10650;51.528;6.748;2022-07-29T05:31:13;6.68;;;3.80;;
20982;SDS011;10650;51.528;6.748;2022-07-29T05:33:41;15.73;;;11.15;;
20982;SDS011;10650;51.528;6.748;2022-07-29T05:36:09;9.65;;;4.43;;
20982;SDS011;10650;51.528;6.748;2022-07-29T05:38:37;6.88;;;3.63;;
20982;SDS011;10650;51.528;6.748;2022-07-29T05:41:05;5.65;;;4.07;;
20982;SDS011;10650;51.528;6.748;2022-07-29T05:43:33;5.80;;;3.75;;
20982;SDS011;10650;51.528;6.748;2022-07-29T05:46:01;6.18;;;3.60;;
20982;SDS011;10650;51.528;6.748;2022-07-29T05:48:30;5.80;;;4.22;;
20982;SDS011;10650;51.528;6.748;2022-07-29T05:50:58;4.80;;;3.42;;
20982;SDS011;10650;51.528;6.748;2022-07-29T05:53:26;7.47;;;3.83;;
20982;SDS011;10650;51.528;6.748;2022-07-29T05:55:54;5.82;;;2.90;;
20982;SDS011;10650;51.528;6.748;2022-07-29T05:58:21;3.97;;;3.03;;
20982;SDS011;10650;51.528;6.748;2022-07-29T06:00:49;4.82;;;3.10;;
20982;SDS011;10650;51.528;6.748;2022-07-29T06:03:17;5.65;;;2.88;;
20982;SDS011;10650;51.528;6.748;2022-07-29T06:05:46;4.47;;;3.10;;
20982;SDS011;10650;51.528;6.748;2022-07-29T06:08:14;3.95;;;2.95;;
20982;SDS011;10650;51.528;6.748;2022-07-29T06:10:42;3.65;;;3.03;;
20982;SDS011;10650;51.528;6.748;2022-07-29T06:13:10;7.70;;;3.03;;
20982;SDS011;10650;51.528;6.748;2022-07-29T06:15:38;7.35;;;3.25;;
20982;SDS011;10650;51.528;6.748;2022-07-29T06:18:06;7.65;;;2.83;;
20982;SDS011;10650;51.528;6.748;2022-07-29T06:20:36;4.05;;;3.30;;
20982;SDS011;10650;51.528;6.748;2022-07-29T06:23:05;4.80;;;2.92;;
20982;SDS011;10650;51.528;6.748;2022-07-29T06:25:33;4.95;;;3.30;;
20982;SDS011;10650;51.528;6.748;2022-07-29T06:28:02;4.85;;;3.25;;
20982;SDS011;10650;51.528;6.748;2022-07-29T06:30:31;6.05;;;3.90;;
20982;SDS011;10650;51.528;6.748;2022-07-29T06:32:58;4.22;;;3.13;;
20982;SDS011;10650;51.528;6.748;2022-07-29T06:35:28;7.03;;;3.85;;
20982;SDS011;10650;51.528;6.748;2022-07-29T06:38:08;4.97;;;3.05;;
20982;SDS011;10650;51.528;6.748;2022-07-29T06:40:57;5.13;;;3.42;;
20982;SDS011;10650;51.528;6.748;2022-07-29T06:43:28;8.23;;;3.72;;
20982;SDS011;10650;51.528;6.748;2022-07-29T06:46:00;6.75;;;3.95;;
20982;SDS011;10650;51.528;6.748;2022-07-29T06:48:28;5.32;;;3.45;;
20982;SDS011;10650;51.528;6.748;2022-07-29T06:50:56;4.82;;;3.20;;
20982;SDS011;10650;51.528;6.748;2022-07-29T06:53:26;4.97;;;3.15;;
20982;SDS011;10650;51.528;6.748;2022-07-29T06:55:54;6.28;;;3.80;;
20982;SDS011;10650;51.528;6.748;2022-07-29T06:58:24;5.53;;;3.60;;
20982;SDS011;10650;51.528;6.748;2022-07-29T07:00:52;7.57;;;3.88;;
20982;SDS011;10650;51.528;6.748;2022-07-29T07:03:21;4.10;;;3.47;;
20982;SDS011;10650;51.528;6.748;2022-07-29T07:05:49;4.65;;;4.13;;
20982;SDS011;10650;51.528;6.748;2022-07-29T07:08:17;8.95;;;5.38;;
20982;SDS011;10650;51.528;6.748;2022-07-29T07:10:47;6.10;;;3.88;;
20982;SDS011;10650;51.528;6.748;2022-07-29T07:13:14;6.75;;;3.38;;
20982;SDS011;10650;51.528;6.748;2022-07-29T07:15:43;5.68;;;4.10;;
20982;SDS011;10650;51.528;6.748;2022-07-29T07:18:14;5.57;;;3.83;;
20982;SDS011;10650;51.528;6.748;2022-07-29T07:20:43;6.20;;;3.97;;
20982;SDS011;10650;51.528;6.748;2022-07-29T07:23:11;7.85;;;4.22;;
20982;SDS011;10650;51.528;6.748;2022-07-29T07:25:38;10.50;;;4.97;;
20982;SDS011;10650;51.528;6.748;2022-07-29T07:28:08;7.10;;;4.00;;
20982;SDS011;10650;51.528;6.748;2022-07-29T07:30:35;9.48;;;4.22;;
20982;SDS011;10650;51.528;6.748;2022-07-29T07:33:03;6.93;;;3.50;;
20982;SDS011;10650;51.528;6.748;2022-07-29T07:35:31;8.30;;;4.00;;
20982;SDS011;10650;51.528;6.748;2022-07-29T07:37:59;10.25;;;4.63;;
20982;SDS011;10650;51.528;6.748;2022-07-29T07:40:27;6.65;;;4.55;;
20982;SDS011;10650;51.528;6.748;2022-07-29T07:42:55;11.18;;;4.95;;
20982;SDS011;10650;51.528;6.748;2022-07-29T07:45:24;9.82;;;4.80;;
20982;SDS011;10650;51.528;6.748;2022-07-29T07:47:52;5.72;;;3.85;;
20982;SDS011;10650;51.528;6.748;2022-07-29T07:50:20;9.30;;;4.15;;
20982;SDS011;10650;51.528;6.748;2022-07-29T07:52:49;8.35;;;4.90;;
20982;SDS011;10650;51.528;6.748;2022-07-29T07:55:19;6.03;;;4.57;;
20982;SDS011;10650;51.528;6.748;2022-07-29T07:57:47;7.47;;;4.30;;
20982;SDS011;10650;51.528;6.748;2022-07-29T08:00:15;5.22;;;3.90;;
20982;SDS011;10650;51.528;6.748;2022-07-29T08:02:45;6.15;;;4.20;;
20982;SDS011;10650;51.528;6.748;2022-07-29T08:05:13;5.93;;;3.90;;
20982;SDS011;10650;51.528;6.748;2022-07-29T08:07:44;6.75;;;4.00;;
20982;SDS011;10650;51.528;6.748;2022-07-29T08:10:13;6.72;;;4.05;;
20982;SDS011;10650;51.528;6.748;2022-07-29T08:13:02;8.20;;;4.82;;
20982;SDS011;10650;51.528;6.748;2022-07-29T08:15:30;7.78;;;4.78;;
20982;SDS011;10650;51.528;6.748;2022-07-29T08:17:59;6.85;;;4.03;;
20982;SDS011;10650;51.528;6.748;2022-07-29T08:20:34;9.63;;;5.20;;
20982;SDS011;10650;51.528;6.748;2022-07-29T08:23:02;5.72;;;4.65;;
20982;SDS011;10650;51.528;6.748;2022-07-29T08:25:32;7.20;;;4.60;;
20982;SDS011;10650;51.528;6.748;2022-07-29T08:28:05;6.72;;;4.65;;
20982;SDS011;10650;51.528;6.748;2022-07-29T08:30:33;9.32;;;4.82;;
20982;SDS011;10650;51.528;6.748;2022-07-29T08:33:02;7.25;;;4.75;;
20982;SDS011;10650;51.528;6.748;2022-07-29T08:35:31;7.18;;;5.63;;
20982;SDS011;10650;51.528;6.748;2022-07-29T08:38:01;7.28;;;5.97;;
20982;SDS011;10650;51.528;6.748;2022-07-29T08:40:29;10.85;;;5.60;;
20982;SDS011;10650;51.528;6.748;2022-07-29T08:42:58;7.60;;;6.00;;
20982;SDS011;10650;51.528;6.748;2022-07-29T08:45:26;9.05;;;5.85;;
20982;SDS011;10650;51.528;6.748;2022-07-29T08:47:56;8.82;;;5.57;;
20982;SDS011;10650;51.528;6.748;2022-07-29T08:50:25;9.75;;;5.40;;
20982;SDS011;10650;51.528;6.748;2022-07-29T08:52:53;8.55;;;5.63;;
20982;SDS011;10650;51.528;6.748;2022-07-29T08:55:25;9.57;;;6.30;;
20982;SDS011;10650;51.528;6.748;2022-07-29T08:57:54;8.55;;;5.60;;
20982;SDS011;10650;51.528;6.748;2022-07-29T09:00:24;8.90;;;6.15;;
20982;SDS011;10650;51.528;6.748;2022-07-29T09:02:56;10.32;;;6.38;;
20982;SDS011;10650;51.528;6.748;2022-07-29T09:05:26;6.57;;;5.43;;
20982;SDS011;10650;51.528;6.748;2022-07-29T09:07:55;7.43;;;5.00;;
20982;SDS011;10650;51.528;6.748;2022-07-29T09:10:23;7.47;;;5.57;;
20982;SDS011;10650;51.528;6.748;2022-07-29T09:12:51;6.88;;;5.93;;
20982;SDS011;10650;51.528;6.748;2022-07-29T09:15:19;7.10;;;5.13;;
20982;SDS011;10650;51.528;6.748;2022-07-29T09:17:48;7.18;;;6.10;;
20982;SDS011;10650;51.528;6.748;2022-07-29T09:20:17;8.65;;;6.47;;
20982;SDS011;10650;51.528;6.748;2022-07-29T09:22:48;9.10;;;6.43;;
20982;SDS011;10650;51.528;6.748;2022-07-29T09:25:31;7.53;;;6.10;;
20982;SDS011;10650;51.528;6.748;2022-07-29T09:30:32;9.52;;;5.90;;
20982;SDS011;10650;51.528;6.748;2022-07-29T09:33:01;7.07;;;5.40;;
20982;SDS011;10650;51.528;6.748;2022-07-29T09:35:30;8.52;;;5.20;;
20982;SDS011;10650;51.528;6.748;2022-07-29T09:38:00;9.27;;;6.05;;
20982;SDS011;10650;51.528;6.748;2022-07-29T09:40:37;6.60;;;5.15;;
20982;SDS011;10650;51.528;6.748;2022-07-29T09:43:09;7.43;;;5.45;;
20982;SDS011;10650;51.528;6.748;2022-07-29T09:45:38;7.88;;;5.35;;
20982;SDS011;10650;51.528;6.748;2022-07-29T09:48:13;8.55;;;5.30;;
20982;SDS011;10650;51.528;6.748;2022-07-29T09:50:42;8.30;;;4.75;;
20982;SDS011;10650;51.528;6.748;2022-07-29T09:53:12;6.05;;;4.57;;
20982;SDS011;10650;51.528;6.748;2022-07-29T09:55:58;5.10;;;4.13;;
20982;SDS011;10650;51.528;6.748;2022-07-29T09:58:26;5.63;;;4.20;;
20982;SDS011;10650;51.528;6.748;2022-07-29T10:00:54;7.00;;;4.40;;
20982;SDS011;10650;51.528;6.748;2022-07-29T10:03:23;5.47;;;4.03;;
20982;SDS011;10650;51.528;6.748;2022-07-29T10:06:04;6.78;;;4.00;;
20982;SDS011;10650;51.528;6.748;2022-07-29T10:08:34;7.97;;;4.32;;
20982;SDS011;10650;51.528;6.748;2022-07-29T10:11:09;6.05;;;4.60;;
20982;SDS011;10650;51.528;6.748;2022-07-29T10:13:38;7.28;;;4.53;;
20982;SDS011;10650;51.528;6.748;2022-07-29T10:16:07;9.57;;;4.78;;
20982;SDS011;10650;51.528;6.748;2022-07-29T10:18:36;8.95;;;4.40;;
20982;SDS011;10650;51.528;6.748;2022-07-29T10:21:05;5.97;;;4.15;;
20982;SDS011;10650;51.528;6.748;2022-07-29T10:23:35;8.15;;;4.07;;
20982;SDS011;10650;51.528;6.748;2022-07-29T10:26:12;7.47;;;3.90;;
20982;SDS011;10650;51.528;6.748;2022-07-29T10:28:40;6.30;;;4.32;;
20982;SDS011;10650;51.528;6.748;2022-07-29T10:31:10;5.50;;;3.78;;
20982;SDS011;10650;51.528;6.748;2022-07-29T10:33:48;6.57;;;3.97;;
20982;SDS011;10650;51.528;6.748;2022-07-29T10:36:32;6.93;;;4.15;;
20982;SDS011;10650;51.528;6.748;2022-07-29T10:39:14;5.18;;;3.78;;
20982;SDS011;10650;51.528;6.748;2022-07-29T10:42:10;8.35;;;5.00;;
20982;SDS011;10650;51.528;6.748;2022-07-29T10:44:45;4.70;;;4.30;;
20982;SDS011;10650;51.528;6.748;2022-07-29T10:47:20;7.72;;;4.20;;
20982;SDS011;10650;51.528;6.748;2022-07-29T10:49:55;9.10;;;4.70;;
20982;SDS011;10650;51.528;6.748;2022-07-29T10:55:34;6.32;;;4.70;;
20982;SDS011;10650;51.528;6.748;2022-07-29T10:58:12;6.55;;;5.50;;
20982;SDS011;10650;51.528;6.748;2022-07-29T11:00:43;6.85;;;5.30;;
20982;SDS011;10650;51.528;6.748;2022-07-29T11:06:16;7.75;;;5.38;;
20982;SDS011;10650;51.528;6.748;2022-07-29T11:12:01;8.15;;;4.78;;
20982;SDS011;10650;51.528;6.748;2022-07-29T11:17:23;7.30;;;4.80;;
20982;SDS011;10650;51.528;6.748;2022-07-29T11:19:51;10.40;;;5.93;;
20982;SDS011;10650;51.528;6.748;2022-07-29T11:22:58;7.53;;;5.57;;
20982;SDS011;10650;51.528;6.748;2022-07-29T11:25:26;8.85;;;6.70;;
20982;SDS011;10650;51.528;6.748;2022-07-29T11:28:16;9.15;;;7.10;;
20982;SDS011;10650;51.528;6.748;2022-07-29T11:30:51;9.20;;;6.57;;
20982;SDS011;10650;51.528;6.748;2022-07-29T11:33:28;8.35;;;6.72;;
20982;SDS011;10650;51.528;6.748;2022-07-29T11:36:16;8.20;;;7.05;;
20982;SDS011;10650;51.528;6.748;2022-07-29T11:38:53;6.95;;;5.85;;
20982;SDS011;10650;51.528;6.748;2022-07-29T11:45:09;8.60;;;5.80;;
20982;SDS011;10650;51.528;6.748;2022-07-29T11:47:59;8.30;;;5.32;;
20982;SDS011;10650;51.528;6.748;2022-07-29T11:50:47;7.80;;;5.20;;
20982;SDS011;10650;51.528;6.748;2022-07-29T11:53:16;8.70;;;7.80;;
20982;SDS011;10650;51.528;6.748;2022-07-29T11:55:45;5.97;;;5.35;;
20982;SDS011;10650;51.528;6.748;2022-07-29T11:58:24;6.90;;;6.20;;
20982;SDS011;10650;51.528;6.748;2022-07-29T12:00:54;8.32;;;6.75;;
20982;SDS011;10650;51.528;6.748;2022-07-29T12:03:26;7.20;;;6.03;;
20982;SDS011;10650;51.528;6.748;2022-07-29T12:06:01;9.52;;;5.85;;
20982;SDS011;10650;51.528;6.748;2022-07-29T12:08:38;9.57;;;5.40;;
20982;SDS011;10650;51.528;6.748;2022-07-29T12:11:14;7.53;;;5.35;;
20982;SDS011;10650;51.528;6.748;2022-07-29T12:13:46;7.65;;;5.47;;
20982;SDS011;10650;51.528;6.748;2022-07-29T12:16:16;8.48;;;5.90;;
20982;SDS011;10650;51.528;6.748;2022-07-29T12:18:57;6.88;;;5.32;;
20982;SDS011;10650;51.528;6.748;2022-07-29T12:21:27;9.50;;;5.43;;
20982;SDS011;10650;51.528;6.748;2022-07-29T12:23:56;7.97;;;5.47;;
20982;SDS011;10650;51.528;6.748;2022-07-29T12:26:34;7.15;;;5.18;;
20982;SDS011;10650;51.528;6.748;2022-07-29T12:29:02;9.15;;;5.30;;
20982;SDS011;10650;51.528;6.748;2022-07-29T12:31:42;5.65;;;4.97;;
20982;SDS011;10650;51.528;6.748;2022-07-29T12:34:23;10.90;;;4.85;;
20982;SDS011;10650;51.528;6.748;2022-07-29T12:36:54;10.07;;;5.00;;
20982;SDS011;10650;51.528;6.748;2022-07-29T12:39:21;6.55;;;4.25;;
20982;SDS011;10650;51.528;6.748;2022-07-29T12:41:52;5.40;;;4.35;;
20982;SDS011;10650;51.528;6.748;2022-07-29T12:44:42;7.00;;;4.97;;
20982;SDS011;10650;51.528;6.748;2022-07-29T12:47:12;8.23;;;4.60;;
20982;SDS011;10650;51.528;6.748;2022-07-29T12:49:40;5.30;;;4.63;;
20982;SDS011;10650;51.528;6.748;2022-07-29T12:52:24;7.05;;;5.25;;
20982;SDS011;10650;51.528;6.748;2022-07-29T12:54:53;7.53;;;5.47;;
20982;SDS011;10650;51.528;6.748;2022-07-29T12:57:21;8.20;;;5.22;;
20982;SDS011;10650;51.528;6.748;2022-07-29T13:00:06;7.82;;;5.05;;
20982;SDS011;10650;51.528;6.748;2022-07-29T13:02:38;8.35;;;5.20;;
20982;SDS011;10650;51.528;6.748;2022-07-29T13:05:09;8.45;;;5.47;;
20982;SDS011;10650;51.528;6.748;2022-07-29T13:07:38;7.68;;;5.22;;
20982;SDS011;10650;51.528;6.748;2022-07-29T13:10:26;7.72;;;5.07;;
20982;SDS011;10650;51.528;6.748;2022-07-29T13:13:02;7.60;;;5.00;;
20982;SDS011;10650;51.528;6.748;2022-07-29T13:15:31;6.38;;;5.18;;
20982;SDS011;10650;51.528;6.748;2022-07-29T13:18:01;9.20;;;5.20;;
20982;SDS011;10650;51.528;6.748;2022-07-29T13:20:30;9.20;;;5.65;;
20982;SDS011;10650;51.528;6.748;2022-07-29T13:22:59;7.13;;;5.15;;
20982;SDS011;10650;51.528;6.748;2022-07-29T13:25:28;6.38;;;3.92;;
20982;SDS011;10650;51.528;6.748;2022-07-29T13:27:58;8.23;;;3.85;;
20982;SDS011;10650;51.528;6.748;2022-07-29T13:30:26;5.85;;;3.25;;
20982;SDS011;10650;51.528;6.748;2022-07-29T13:32:55;6.72;;;4.07;;
20982;SDS011;10650;51.528;6.748;2022-07-29T13:35:24;8.05;;;3.70;;
20982;SDS011;10650;51.528;6.748;2022-07-29T13:37:52;6.55;;;3.97;;
20982;SDS011;10650;51.528;6.748;2022-07-29T13:40:20;6.13;;;3.72;;
20982;SDS011;10650;51.528;6.748;2022-07-29T13:42:48;5.90;;;3.88;;
20982;SDS011;10650;51.528;6.748;2022-07-29T13:45:16;7.55;;;4.00;;
20982;SDS011;10650;51.528;6.748;2022-07-29T13:47:44;5.15;;;3.60;;
20982;SDS011;10650;51.528;6.748;2022-07-29T13:50:14;6.50;;;3.10;;
20982;SDS011;10650;51.528;6.748;2022-07-29T13:52:44;5.18;;;3.13;;
20982;SDS011;10650;51.528;6.748;2022-07-29T13:55:14;6.65;;;3.30;;
20982;SDS011;10650;51.528;6.748;2022-07-29T13:57:41;7.00;;;3.50;;
20982;SDS011;10650;51.528;6.748;2022-07-29T14:00:09;7.97;;;3.30;;
20982;SDS011;10650;51.528;6.748;2022-07-29T14:02:38;5.63;;;3.35;;
20982;SDS011;10650;51.528;6.748;2022-07-29T14:05:06;5.80;;;3.42;;
20982;SDS011;10650;51.528;6.748;2022-07-29T14:07:36;5.57;;;3.30;;
20982;SDS011;10650;51.528;6.748;2022-07-29T14:10:06;8.23;;;4.18;;
20982;SDS011;10650;51.528;6.748;2022-07-29T14:12:35;5.50;;;3.10;;
20982;SDS011;10650;51.528;6.748;2022-07-29T14:15:03;5.55;;;2.90;;
20982;SDS011;10650;51.528;6.748;2022-07-29T14:17:31;7.32;;;3.38;;
20982;SDS011;10650;51.528;6.748;2022-07-29T14:19:59;4.43;;;3.40;;
20982;SDS011;10650;51.528;6.748;2022-07-29T14:22:27;6.00;;;3.15;;
20982;SDS011;10650;51.528;6.748;2022-07-29T14:24:55;6.38;;;3.20;;
20982;SDS011;10650;51.528;6.748;2022-07-29T14:27:31;7.55;;;3.70;;
20982;SDS011;10650;51.528;6.748;2022-07-29T14:30:03;4.93;;;3.40;;
20982;SDS011;10650;51.528;6.748;2022-07-29T14:32:32;7.40;;;4.00;;
20982;SDS011;10650;51.528;6.748;2022-07-29T14:35:00;9.70;;;3.70;;
20982;SDS011;10650;51.528;6.748;2022-07-29T14:37:28;4.65;;;3.47;;
20982;SDS011;10650;51.528;6.748;2022-07-29T14:40:05;6.95;;;3.10;;
20982;SDS011;10650;51.528;6.748;2022-07-29T14:42:36;4.70;;;3.40;;
20982;SDS011;10650;51.528;6.748;2022-07-29T14:45:05;7.22;;;3.20;;
20982;SDS011;10650;51.528;6.748;2022-07-29T14:47:34;5.13;;;3.05;;
20982;SDS011;10650;51.528;6.748;2022-07-29T14:50:02;5.40;;;3.30;;
20982;SDS011;10650;51.528;6.748;2022-07-29T14:52:31;6.70;;;3.17;;
20982;SDS011;10650;51.528;6.748;2022-07-29T14:54:59;5.00;;;2.88;;
20982;SDS011;10650;51.528;6.748;2022-07-29T14:57:27;5.43;;;3.03;;
20982;SDS011;10650;51.528;6.748;2022-07-29T14:59:57;6.18;;;3.40;;
20982;SDS011;10650;51.528;6.748;2022-07-29T15:02:25;4.05;;;2.95;;
20982;SDS011;10650;51.528;6.748;2022-07-29T15:05:12;5.75;;;2.95;;
20982;SDS011;10650;51.528;6.748;2022-07-29T15:07:40;6.30;;;2.63;;
20982;SDS011;10650;51.528;6.748;2022-07-29T15:10:08;6.32;;;3.08;;
20982;SDS011;10650;51.528;6.748;2022-07-29T15:12:39;4.32;;;2.90;;
20982;SDS011;10650;51.528;6.748;2022-07-29T15:15:09;4.88;;;3.30;;
20982;SDS011;10650;51.528;6.748;2022-07-29T15:17:37;5.63;;;2.72;;
20982;SDS011;10650;51.528;6.748;2022-07-29T15:20:05;4.57;;;3.05;;
20982;SDS011;10650;51.528;6.748;2022-07-29T15:22:33;3.55;;;2.75;;
20982;SDS011;10650;51.528;6.748;2022-07-29T15:25:01;4.00;;;2.85;;
20982;SDS011;10650;51.528;6.748;2022-07-29T15:27:29;5.40;;;2.90;;
20982;SDS011;10650;51.528;6.748;2022-07-29T15:29:57;3.88;;;2.92;;
20982;SDS011;10650;51.528;6.748;2022-07-29T15:32:26;6.15;;;2.90;;
20982;SDS011;10650;51.528;6.748;2022-07-29T15:34:54;4.03;;;2.78;;